createdAt,value
2022-07-25T00:00:10.676Z,993.53
2022-07-25T00:01:10.670Z,993.51
2022-07-25T00:02:10.741Z,993.49
2022-07-25T00:03:11.001Z,993.49
2022-07-25T00:04:11.269Z,993.49
2022-07-25T00:05:10.642Z,993.48
2022-07-25T00:06:13.348Z,993.41
2022-07-25T00:07:11.624Z,993.43
2022-07-25T00:08:10.618Z,993.45
2022-07-25T00:09:10.635Z,993.37
2022-07-25T00:10:10.604Z,993.35
2022-07-25T00:11:10.589Z,993.38
2022-07-25T00:12:11.293Z,993.37
2022-07-25T00:13:10.573Z,993.40
2022-07-25T00:14:10.814Z,993.33
2022-07-25T00:15:10.568Z,993.34
2022-07-25T00:16:10.617Z,993.35
2022-07-25T00:17:10.545Z,993.41
2022-07-25T00:18:10.536Z,993.34
2022-07-25T00:19:10.564Z,993.35
2022-07-25T00:20:10.521Z,993.34
2022-07-25T00:21:10.519Z,993.40
2022-07-25T00:22:10.504Z,993.41
2022-07-25T00:23:10.501Z,993.44
2022-07-25T00:24:10.769Z,993.42
2022-07-25T00:25:10.483Z,993.47
2022-07-25T00:26:10.482Z,993.37
2022-07-25T00:27:10.467Z,993.41
2022-07-25T00:28:10.458Z,993.44
2022-07-25T00:29:10.480Z,993.38
2022-07-25T00:30:10.442Z,993.44
2022-07-25T00:31:10.527Z,993.41
2022-07-25T00:32:10.423Z,993.42
2022-07-25T00:33:10.416Z,993.31
2022-07-25T00:34:10.900Z,993.37
2022-07-25T00:35:10.399Z,993.35
2022-07-25T00:36:10.413Z,993.36
2022-07-25T00:37:10.393Z,993.35
2022-07-25T00:38:10.376Z,993.35
2022-07-25T00:39:10.390Z,993.39
2022-07-25T00:40:10.358Z,993.40
2022-07-25T00:41:10.358Z,993.37
2022-07-25T00:42:10.343Z,993.28
2022-07-25T00:43:10.334Z,993.28
2022-07-25T00:44:10.381Z,993.30
2022-07-25T00:45:10.321Z,993.32
2022-07-25T00:46:10.341Z,993.33
2022-07-25T00:47:10.314Z,993.27
2022-07-25T00:48:10.297Z,993.28
2022-07-25T00:49:11.401Z,993.28
2022-07-25T00:50:10.286Z,993.18
2022-07-25T00:51:10.271Z,993.23
2022-07-25T00:52:11.268Z,993.24
2022-07-25T00:53:10.264Z,993.23
2022-07-25T00:54:10.277Z,993.18
2022-07-25T00:55:10.248Z,993.13
2022-07-25T00:56:10.240Z,993.14
2022-07-25T00:57:10.231Z,993.15
2022-07-25T00:58:10.231Z,993.22
2022-07-25T00:59:10.245Z,993.22
2022-07-25T01:00:10.211Z,993.19
2022-07-25T01:01:10.281Z,993.15
2022-07-25T01:02:10.225Z,993.17
2022-07-25T01:03:10.241Z,993.15
2022-07-25T01:04:10.222Z,993.11
2022-07-25T01:05:10.416Z,993.14
2022-07-25T01:06:10.158Z,993.03
2022-07-25T01:07:11.160Z,993.11
2022-07-25T01:08:10.156Z,993.05
2022-07-25T01:09:10.178Z,993.04
2022-07-25T01:10:11.134Z,993.01
2022-07-25T01:11:10.136Z,993.02
2022-07-25T01:12:10.123Z,993.01
2022-07-25T01:13:10.114Z,993.01
2022-07-25T01:14:42.044Z,992.95
2022-07-25T01:15:10.096Z,992.95
2022-07-25T01:16:10.137Z,992.94
2022-07-25T01:17:10.081Z,992.89
2022-07-25T01:18:10.077Z,992.96
2022-07-25T01:19:10.206Z,992.88
2022-07-25T01:20:10.061Z,992.91
2022-07-25T01:21:10.062Z,992.93
2022-07-25T01:22:10.046Z,992.90
2022-07-25T01:23:10.036Z,992.98
2022-07-25T01:24:10.049Z,992.97
2022-07-25T01:25:10.020Z,993.00
2022-07-25T01:26:10.016Z,992.96
2022-07-25T01:27:10.025Z,992.98
2022-07-25T01:28:10.998Z,992.97
2022-07-25T01:29:10.023Z,992.90
2022-07-25T01:30:09.982Z,993.00
2022-07-25T01:31:10.026Z,992.96
2022-07-25T01:32:09.965Z,992.97
2022-07-25T01:33:09.963Z,992.96
2022-07-25T01:34:10.191Z,992.94
2022-07-25T01:35:09.942Z,992.97
2022-07-25T01:36:09.938Z,992.95
2022-07-25T01:37:09.925Z,993.00
2022-07-25T01:38:09.923Z,992.94
2022-07-25T01:39:09.941Z,992.92
2022-07-25T01:40:09.909Z,992.85
2022-07-25T01:41:09.895Z,992.87
2022-07-25T01:42:09.885Z,992.93
2022-07-25T01:43:09.882Z,992.84
2022-07-25T01:44:10.282Z,992.82
2022-07-25T01:45:09.859Z,992.78
2022-07-25T01:46:09.892Z,992.82
2022-07-25T01:47:09.855Z,992.81
2022-07-25T01:48:09.847Z,992.77
2022-07-25T01:49:09.906Z,992.82
2022-07-25T01:50:10.826Z,992.79
2022-07-25T01:51:09.825Z,992.72
2022-07-25T01:52:09.808Z,992.77
2022-07-25T01:53:09.804Z,992.83
2022-07-25T01:54:10.459Z,992.72
2022-07-25T01:55:09.794Z,992.76
2022-07-25T01:56:10.164Z,992.78
2022-07-25T01:57:09.776Z,992.78
2022-07-25T01:58:09.770Z,992.81
2022-07-25T01:59:09.787Z,992.67
2022-07-25T02:00:09.754Z,992.74
2022-07-25T02:01:09.812Z,992.72
2022-07-25T02:02:09.734Z,992.75
2022-07-25T02:03:09.727Z,992.72
2022-07-25T02:04:10.302Z,992.71
2022-07-25T02:05:09.750Z,992.76
2022-07-25T02:06:09.711Z,992.72
2022-07-25T02:07:09.697Z,992.67
2022-07-25T02:08:09.944Z,992.67
2022-07-25T02:09:09.708Z,992.60
2022-07-25T02:10:09.705Z,992.69
2022-07-25T02:11:09.668Z,992.59
2022-07-25T02:12:09.662Z,992.61
2022-07-25T02:13:09.656Z,992.61
2022-07-25T02:14:09.878Z,992.57
2022-07-25T02:15:09.666Z,992.61
2022-07-25T02:16:09.633Z,992.52
2022-07-25T02:17:09.672Z,992.60
2022-07-25T02:18:09.632Z,992.60
2022-07-25T02:19:09.613Z,992.59
2022-07-25T02:20:09.628Z,992.59
2022-07-25T02:21:13.936Z,992.54
2022-07-25T02:22:10.592Z,992.58
2022-07-25T02:23:09.583Z,992.52
2022-07-25T02:24:10.075Z,992.50
2022-07-25T02:25:09.593Z,992.50
2022-07-25T02:26:09.561Z,992.49
2022-07-25T02:27:09.559Z,992.51
2022-07-25T02:28:10.462Z,992.50
2022-07-25T02:29:09.541Z,992.51
2022-07-25T02:30:09.560Z,992.51
2022-07-25T02:31:09.577Z,992.47
2022-07-25T02:32:09.519Z,992.51
2022-07-25T02:33:09.521Z,992.45
2022-07-25T02:34:09.775Z,992.41
2022-07-25T02:35:09.944Z,992.46
2022-07-25T02:36:09.490Z,992.45
2022-07-25T02:37:09.480Z,992.44
2022-07-25T02:38:09.475Z,992.43
2022-07-25T02:39:09.464Z,992.49
2022-07-25T02:40:09.485Z,992.45
2022-07-25T02:41:09.456Z,992.38
2022-07-25T02:42:09.440Z,992.37
2022-07-25T02:43:09.437Z,992.35
2022-07-25T02:44:09.782Z,992.46
2022-07-25T02:45:09.466Z,992.40
2022-07-25T02:46:09.487Z,992.32
2022-07-25T02:47:09.404Z,992.35
2022-07-25T02:48:09.401Z,992.34
2022-07-25T02:49:09.446Z,992.31
2022-07-25T02:50:09.421Z,992.35
2022-07-25T02:51:10.375Z,992.33
2022-07-25T02:52:09.381Z,992.34
2022-07-25T02:53:09.362Z,992.31
2022-07-25T02:54:09.537Z,992.30
2022-07-25T02:55:09.982Z,992.34
2022-07-25T02:56:10.359Z,992.33
2022-07-25T02:57:09.333Z,992.24
2022-07-25T02:58:09.328Z,992.26
2022-07-25T02:59:09.319Z,992.26
2022-07-25T03:00:09.342Z,992.26
2022-07-25T03:01:09.361Z,992.28
2022-07-25T03:02:09.303Z,992.30
2022-07-25T03:03:09.285Z,992.30
2022-07-25T03:04:09.966Z,992.23
2022-07-25T03:05:09.321Z,992.20
2022-07-25T03:06:09.267Z,992.27
2022-07-25T03:07:09.277Z,992.20
2022-07-25T03:08:09.254Z,992.24
2022-07-25T03:09:09.232Z,992.15
2022-07-25T03:10:11.556Z,992.15
2022-07-25T03:11:09.232Z,992.20
2022-07-25T03:12:09.228Z,992.11
2022-07-25T03:13:09.230Z,992.09
2022-07-25T03:14:09.740Z,992.16
2022-07-25T03:15:09.233Z,992.21
2022-07-25T03:16:09.213Z,992.09
2022-07-25T03:17:09.237Z,992.07
2022-07-25T03:18:09.175Z,992.18
2022-07-25T03:19:09.173Z,992.13
2022-07-25T03:20:09.191Z,992.01
2022-07-25T03:21:09.150Z,992.07
2022-07-25T03:22:09.144Z,992.12
2022-07-25T03:23:09.136Z,992.12
2022-07-25T03:24:09.452Z,992.09
2022-07-25T03:25:15.761Z,992.05
2022-07-25T03:26:10.120Z,992.01
2022-07-25T03:27:09.103Z,992.10
2022-07-25T03:28:09.095Z,992.00
2022-07-25T03:29:09.086Z,991.99
2022-07-25T03:30:09.105Z,992.01
2022-07-25T03:31:09.077Z,991.99
2022-07-25T03:32:09.141Z,992.01
2022-07-25T03:33:09.061Z,991.89
2022-07-25T03:34:09.260Z,991.94
2022-07-25T03:35:09.069Z,991.93
2022-07-25T03:36:09.032Z,991.93
2022-07-25T03:37:09.023Z,991.93
2022-07-25T03:38:09.018Z,991.96
2022-07-25T03:39:09.013Z,991.89
2022-07-25T03:40:09.019Z,991.87
2022-07-25T03:41:10.010Z,991.87
2022-07-25T03:42:08.986Z,991.96
2022-07-25T03:43:08.981Z,991.95
2022-07-25T03:44:09.729Z,991.94
2022-07-25T03:45:08.985Z,991.95
2022-07-25T03:46:09.020Z,991.95
2022-07-25T03:47:08.953Z,991.84
2022-07-25T03:48:09.957Z,991.82
2022-07-25T03:49:08.988Z,991.85
2022-07-25T03:50:08.951Z,991.85
2022-07-25T03:51:08.920Z,991.86
2022-07-25T03:52:08.917Z,991.83
2022-07-25T03:53:09.197Z,991.81
2022-07-25T03:54:09.336Z,991.83
2022-07-25T03:55:08.914Z,991.87
2022-07-25T03:56:08.886Z,991.82
2022-07-25T03:57:08.885Z,991.83
2022-07-25T03:58:08.872Z,991.81
2022-07-25T03:59:08.866Z,991.77
2022-07-25T04:00:08.885Z,991.76
2022-07-25T04:01:08.913Z,991.76
2022-07-25T04:02:08.884Z,991.82
2022-07-25T04:03:08.836Z,991.77
2022-07-25T04:04:09.158Z,991.77
2022-07-25T04:05:08.847Z,991.77
2022-07-25T04:06:08.817Z,991.82
2022-07-25T04:07:08.807Z,991.73
2022-07-25T04:08:08.800Z,991.78
2022-07-25T04:09:08.792Z,991.72
2022-07-25T04:10:08.808Z,991.76
2022-07-25T04:11:08.769Z,991.76
2022-07-25T04:12:08.770Z,991.76
2022-07-25T04:13:08.752Z,991.81
2022-07-25T04:14:09.064Z,991.79
2022-07-25T04:15:08.770Z,991.85
2022-07-25T04:16:12.981Z,991.87
2022-07-25T04:17:10.789Z,991.85
2022-07-25T04:18:08.718Z,991.86
2022-07-25T04:19:08.753Z,991.88
2022-07-25T04:20:08.729Z,991.87
2022-07-25T04:21:08.693Z,991.84
2022-07-25T04:22:08.683Z,991.81
2022-07-25T04:23:08.679Z,991.83
2022-07-25T04:24:09.160Z,991.83
2022-07-25T04:25:08.690Z,991.83
2022-07-25T04:26:08.658Z,991.88
2022-07-25T04:27:08.651Z,991.78
2022-07-25T04:28:08.636Z,991.87
2022-07-25T04:29:08.632Z,991.74
2022-07-25T04:30:08.650Z,991.79
2022-07-25T04:31:08.618Z,991.70
2022-07-25T04:32:08.656Z,991.78
2022-07-25T04:33:08.602Z,991.77
2022-07-25T04:34:08.979Z,991.70
2022-07-25T04:35:08.613Z,991.68
2022-07-25T04:36:08.575Z,991.66
2022-07-25T04:37:08.578Z,991.72
2022-07-25T04:38:12.052Z,991.62
2022-07-25T04:39:09.554Z,991.68
2022-07-25T04:40:08.571Z,991.69
2022-07-25T04:41:08.541Z,991.67
2022-07-25T04:42:08.540Z,991.69
2022-07-25T04:43:08.531Z,991.75
2022-07-25T04:44:09.246Z,991.62
2022-07-25T04:45:08.537Z,991.65
2022-07-25T04:46:08.587Z,991.66
2022-07-25T04:47:08.495Z,991.57
2022-07-25T04:48:08.487Z,991.54
2022-07-25T04:49:08.609Z,991.53
2022-07-25T04:50:08.509Z,991.54
2022-07-25T04:51:08.464Z,991.50
2022-07-25T04:52:08.462Z,991.47
2022-07-25T04:53:08.456Z,991.52
2022-07-25T04:54:08.850Z,991.44
2022-07-25T04:55:08.457Z,991.39
2022-07-25T04:56:08.429Z,991.47
2022-07-25T04:57:08.428Z,991.40
2022-07-25T04:58:08.418Z,991.51
2022-07-25T04:59:08.405Z,991.45
2022-07-25T05:00:08.424Z,991.42
2022-07-25T05:01:08.426Z,991.36
2022-07-25T05:02:08.430Z,991.33
2022-07-25T05:03:08.371Z,991.33
2022-07-25T05:04:08.630Z,991.29
2022-07-25T05:05:08.400Z,991.33
2022-07-25T05:06:09.340Z,991.29
2022-07-25T05:07:09.342Z,991.28
2022-07-25T05:08:08.334Z,991.23
2022-07-25T05:09:08.328Z,991.19
2022-07-25T05:10:08.322Z,991.23
2022-07-25T05:11:08.336Z,991.26
2022-07-25T05:12:08.301Z,991.24
2022-07-25T05:13:08.291Z,991.14
2022-07-25T05:14:08.626Z,991.21
2022-07-25T05:15:08.277Z,991.18
2022-07-25T05:16:08.329Z,991.21
2022-07-25T05:17:08.280Z,991.13
2022-07-25T05:18:08.254Z,991.23
2022-07-25T05:19:08.249Z,991.19
2022-07-25T05:20:08.238Z,991.11
2022-07-25T05:21:08.255Z,991.18
2022-07-25T05:22:08.226Z,991.19
2022-07-25T05:23:08.217Z,991.18
2022-07-25T05:24:08.578Z,991.12
2022-07-25T05:25:08.230Z,991.13
2022-07-25T05:26:08.221Z,991.18
2022-07-25T05:27:08.188Z,991.13
2022-07-25T05:28:08.178Z,991.13
2022-07-25T05:29:09.174Z,991.06
2022-07-25T05:30:08.170Z,991.07
2022-07-25T05:31:08.282Z,991.03
2022-07-25T05:32:08.166Z,991.00
2022-07-25T05:33:08.146Z,991.08
2022-07-25T05:34:08.425Z,991.03
2022-07-25T05:35:08.164Z,991.00
2022-07-25T05:36:09.149Z,991.01
2022-07-25T05:37:08.116Z,991.06
2022-07-25T05:38:08.110Z,990.95
2022-07-25T05:39:08.100Z,990.99
2022-07-25T05:40:08.095Z,990.90
2022-07-25T05:41:08.113Z,990.94
2022-07-25T05:42:08.085Z,990.94
2022-07-25T05:43:08.076Z,990.94
2022-07-25T05:44:08.326Z,990.94
2022-07-25T05:45:08.060Z,990.91
2022-07-25T05:46:08.083Z,990.93
2022-07-25T05:47:08.116Z,990.95
2022-07-25T05:48:08.038Z,990.93
2022-07-25T05:49:08.066Z,990.95
2022-07-25T05:50:08.022Z,990.92
2022-07-25T05:51:08.044Z,990.92
2022-07-25T05:52:12.509Z,990.90
2022-07-25T05:53:10.002Z,990.91
2022-07-25T05:54:08.324Z,990.89
2022-07-25T05:55:07.982Z,990.90
2022-07-25T05:56:08.006Z,990.90
2022-07-25T05:57:07.974Z,990.93
2022-07-25T05:58:07.965Z,990.90
2022-07-25T05:59:07.958Z,990.89
2022-07-25T06:00:07.955Z,990.92
2022-07-25T06:01:07.968Z,990.87
2022-07-25T06:02:08.049Z,990.85
2022-07-25T06:03:08.010Z,990.88
2022-07-25T06:04:08.293Z,990.82
2022-07-25T06:05:07.915Z,990.80
2022-07-25T06:06:07.927Z,990.82
2022-07-25T06:07:07.893Z,990.84
2022-07-25T06:08:07.885Z,990.79
2022-07-25T06:09:08.211Z,990.83
2022-07-25T06:10:07.873Z,990.78
2022-07-25T06:11:08.311Z,990.88
2022-07-25T06:12:07.855Z,990.85
2022-07-25T06:13:07.848Z,990.79
2022-07-25T06:14:08.134Z,990.75
2022-07-25T06:15:07.832Z,990.82
2022-07-25T06:16:07.905Z,990.81
2022-07-25T06:17:07.811Z,990.73
2022-07-25T06:18:07.814Z,990.72
2022-07-25T06:19:07.811Z,990.68
2022-07-25T06:20:07.800Z,990.68
2022-07-25T06:21:07.818Z,990.67
2022-07-25T06:22:07.775Z,990.65
2022-07-25T06:23:07.775Z,990.69
2022-07-25T06:24:08.121Z,990.59
2022-07-25T06:25:07.761Z,990.57
2022-07-25T06:26:07.778Z,990.61
2022-07-25T06:27:07.746Z,990.61
2022-07-25T06:28:07.743Z,990.57
2022-07-25T06:29:07.734Z,990.55
2022-07-25T06:30:18.769Z,990.56
2022-07-25T06:31:09.803Z,990.48
2022-07-25T06:32:07.714Z,990.49
2022-07-25T06:33:07.736Z,990.44
2022-07-25T06:34:08.001Z,990.52
2022-07-25T06:35:07.700Z,990.53
2022-07-25T06:36:07.717Z,990.59
2022-07-25T06:37:07.681Z,990.56
2022-07-25T06:38:07.669Z,990.49
2022-07-25T06:39:07.660Z,990.49
2022-07-25T06:40:07.679Z,990.40
2022-07-25T06:41:07.667Z,990.43
2022-07-25T06:42:07.643Z,990.47
2022-07-25T06:43:07.633Z,990.43
2022-07-25T06:44:08.279Z,990.40
2022-07-25T06:45:07.613Z,990.37
2022-07-25T06:46:07.747Z,990.37
2022-07-25T06:47:07.665Z,990.38
2022-07-25T06:48:07.590Z,990.38
2022-07-25T06:49:07.640Z,990.38
2022-07-25T06:50:07.597Z,990.35
2022-07-25T06:51:07.590Z,990.38
2022-07-25T06:52:07.552Z,990.38
2022-07-25T06:53:07.552Z,990.34
2022-07-25T06:54:07.920Z,990.38
2022-07-25T06:55:07.541Z,990.26
2022-07-25T06:56:07.545Z,990.30
2022-07-25T06:57:07.520Z,990.30
2022-07-25T06:58:07.514Z,990.23
2022-07-25T06:59:07.505Z,990.24
2022-07-25T07:00:07.500Z,990.25
2022-07-25T07:01:07.579Z,990.24
2022-07-25T07:02:07.484Z,990.24
2022-07-25T07:03:07.526Z,990.28
2022-07-25T07:04:07.808Z,990.20
2022-07-25T07:05:07.459Z,990.23
2022-07-25T07:06:07.474Z,990.31
2022-07-25T07:07:07.442Z,990.26
2022-07-25T07:08:07.432Z,990.18
2022-07-25T07:09:07.447Z,990.21
2022-07-25T07:10:07.436Z,990.15
2022-07-25T07:11:07.433Z,990.15
2022-07-25T07:12:07.403Z,990.12
2022-07-25T07:13:07.631Z,990.15
2022-07-25T07:14:39.899Z,990.11
2022-07-25T07:15:07.376Z,990.08
2022-07-25T07:16:07.441Z,990.10
2022-07-25T07:17:07.363Z,990.06
2022-07-25T07:18:07.368Z,990.12
2022-07-25T07:19:07.644Z,990.11
2022-07-25T07:20:08.344Z,990.13
2022-07-25T07:21:07.348Z,990.14
2022-07-25T07:22:08.327Z,990.14
2022-07-25T07:23:07.324Z,990.02
2022-07-25T07:24:18.500Z,990.07
2022-07-25T07:25:08.315Z,990.10
2022-07-25T07:26:07.472Z,990.10
2022-07-25T07:27:07.292Z,990.07
2022-07-25T07:28:07.281Z,990.09
2022-07-25T07:29:07.529Z,990.09
2022-07-25T07:30:07.270Z,990.02
2022-07-25T07:31:16.422Z,990.09
2022-07-25T07:32:09.290Z,990.09
2022-07-25T07:33:07.245Z,990.00
2022-07-25T07:34:07.228Z,990.06
2022-07-25T07:35:07.225Z,990.00
2022-07-25T07:36:07.219Z,990.00
2022-07-25T07:37:07.236Z,990.04
2022-07-25T07:38:07.219Z,989.94
2022-07-25T07:39:07.643Z,990.00
2022-07-25T07:40:07.184Z,989.91
2022-07-25T07:41:07.192Z,989.97
2022-07-25T07:42:07.199Z,989.92
2022-07-25T07:43:07.164Z,989.91
2022-07-25T07:44:07.156Z,989.90
2022-07-25T07:45:07.147Z,989.92
2022-07-25T07:46:07.183Z,989.93
2022-07-25T07:47:07.160Z,989.97
2022-07-25T07:48:08.126Z,989.90
2022-07-25T07:49:08.571Z,989.84
2022-07-25T07:50:07.109Z,989.86
2022-07-25T07:51:07.100Z,989.86
2022-07-25T07:52:07.123Z,989.82
2022-07-25T07:53:07.088Z,989.84
2022-07-25T07:54:07.074Z,989.81
2022-07-25T07:55:07.061Z,989.83
2022-07-25T07:56:08.065Z,989.79
2022-07-25T07:57:07.076Z,989.75
2022-07-25T07:58:08.050Z,989.81
2022-07-25T07:59:07.451Z,989.76
2022-07-25T08:00:07.038Z,989.73
2022-07-25T08:01:07.034Z,989.78
2022-07-25T08:02:07.102Z,989.77
2022-07-25T08:03:07.034Z,989.70
2022-07-25T08:04:08.036Z,989.74
2022-07-25T08:05:07.005Z,989.75
2022-07-25T08:06:06.992Z,989.77
2022-07-25T08:07:07.008Z,989.75
2022-07-25T08:08:06.975Z,989.75
2022-07-25T08:09:07.304Z,989.77
2022-07-25T08:10:06.964Z,989.70
2022-07-25T08:11:06.958Z,989.71
2022-07-25T08:12:06.982Z,989.59
2022-07-25T08:13:06.941Z,989.62
2022-07-25T08:14:07.379Z,989.65
2022-07-25T08:15:06.932Z,989.57
2022-07-25T08:16:07.032Z,989.61
2022-07-25T08:17:06.935Z,989.58
2022-07-25T08:18:06.912Z,989.59
2022-07-25T08:19:07.895Z,989.53
2022-07-25T08:20:27.894Z,989.49
2022-07-25T08:21:08.906Z,989.55
2022-07-25T08:22:06.931Z,989.47
2022-07-25T08:23:06.866Z,989.50
2022-07-25T08:24:07.371Z,989.47
2022-07-25T08:25:06.865Z,989.48
2022-07-25T08:26:06.848Z,989.42
2022-07-25T08:27:06.864Z,989.48
2022-07-25T08:28:06.831Z,989.45
2022-07-25T08:29:18.879Z,989.25
2022-07-25T08:30:08.814Z,989.35
2022-07-25T08:31:06.871Z,989.32
2022-07-25T08:32:06.830Z,989.33
2022-07-25T08:33:06.794Z,989.34
2022-07-25T08:34:07.218Z,989.33
2022-07-25T08:35:11.211Z,989.32
2022-07-25T08:36:07.768Z,989.30
2022-07-25T08:37:06.784Z,989.28
2022-07-25T08:38:06.755Z,989.34
2022-07-25T08:39:06.740Z,989.31
2022-07-25T08:40:06.736Z,989.33
2022-07-25T08:41:06.733Z,989.30
2022-07-25T08:42:10.915Z,989.31
2022-07-25T08:43:07.715Z,989.26
2022-07-25T08:44:06.987Z,989.31
2022-07-25T08:45:06.706Z,989.30
2022-07-25T08:46:06.747Z,989.26
2022-07-25T08:47:06.704Z,989.29
2022-07-25T08:48:06.689Z,989.28
2022-07-25T08:49:06.759Z,989.31
2022-07-25T08:50:06.670Z,989.33
2022-07-25T08:51:06.656Z,989.22
2022-07-25T08:52:06.678Z,989.24
2022-07-25T08:53:31.527Z,989.30
2022-07-25T08:54:08.955Z,989.31
2022-07-25T08:55:06.634Z,989.29
2022-07-25T08:56:14.791Z,989.33
2022-07-25T08:57:08.643Z,989.28
2022-07-25T08:58:06.614Z,989.26
2022-07-25T08:59:06.601Z,989.28
2022-07-25T09:00:06.593Z,989.25
2022-07-25T09:01:06.598Z,989.26
2022-07-25T09:02:06.648Z,989.30
2022-07-25T09:03:06.689Z,989.32
2022-07-25T09:04:07.006Z,989.30
2022-07-25T09:05:06.561Z,989.26
2022-07-25T09:06:06.548Z,989.30
2022-07-25T09:07:08.291Z,989.21
2022-07-25T09:08:07.526Z,989.24
2022-07-25T09:09:06.531Z,989.22
2022-07-25T09:10:06.516Z,989.15
2022-07-25T09:11:06.509Z,989.14
2022-07-25T09:12:06.562Z,989.18
2022-07-25T09:13:06.493Z,989.15
2022-07-25T09:14:07.238Z,989.16
2022-07-25T09:15:06.478Z,989.10
2022-07-25T09:16:06.533Z,989.16
2022-07-25T09:17:06.501Z,989.14
2022-07-25T09:18:09.991Z,989.19
2022-07-25T09:19:06.449Z,989.17
2022-07-25T09:20:06.447Z,989.10
2022-07-25T09:21:06.427Z,989.18
2022-07-25T09:22:07.507Z,989.15
2022-07-25T09:23:06.426Z,989.16
2022-07-25T09:24:06.853Z,989.15
2022-07-25T09:25:06.407Z,989.06
2022-07-25T09:26:06.403Z,989.09
2022-07-25T09:27:06.423Z,989.06
2022-07-25T09:28:06.393Z,989.01
2022-07-25T09:29:06.382Z,989.05
2022-07-25T09:30:06.376Z,989.07
2022-07-25T09:31:06.413Z,989.08
2022-07-25T09:32:06.391Z,989.01
2022-07-25T09:33:06.386Z,989.01
2022-07-25T09:34:06.560Z,989.00
2022-07-25T09:35:06.336Z,989.03
2022-07-25T09:36:06.326Z,988.93
2022-07-25T09:37:06.340Z,988.89
2022-07-25T09:38:06.307Z,988.90
2022-07-25T09:39:06.304Z,988.90
2022-07-25T09:40:06.300Z,988.90
2022-07-25T09:41:06.293Z,988.86
2022-07-25T09:42:06.317Z,988.83
2022-07-25T09:43:06.306Z,988.87
2022-07-25T09:44:06.554Z,988.83
2022-07-25T09:45:06.263Z,988.79
2022-07-25T09:46:06.299Z,988.72
2022-07-25T09:47:06.310Z,988.75
2022-07-25T09:48:06.244Z,988.81
2022-07-25T09:49:06.310Z,988.81
2022-07-25T09:50:06.222Z,988.73
2022-07-25T09:51:06.223Z,988.76
2022-07-25T09:52:06.217Z,988.69
2022-07-25T09:53:06.237Z,988.71
2022-07-25T09:54:06.571Z,988.66
2022-07-25T09:55:06.193Z,988.68
2022-07-25T09:56:06.208Z,988.65
2022-07-25T09:57:06.180Z,988.66
2022-07-25T09:58:06.206Z,988.62
2022-07-25T09:59:06.175Z,988.63
2022-07-25T10:00:06.151Z,988.61
2022-07-25T10:01:06.237Z,988.49
2022-07-25T10:02:06.145Z,988.55
2022-07-25T10:03:06.236Z,988.44
2022-07-25T10:04:06.415Z,988.40
2022-07-25T10:05:06.116Z,988.34
2022-07-25T10:06:06.123Z,988.42
2022-07-25T10:07:06.111Z,988.39
2022-07-25T10:08:06.123Z,988.40
2022-07-25T10:09:06.093Z,988.37
2022-07-25T10:10:06.084Z,988.47
2022-07-25T10:11:06.077Z,988.26
2022-07-25T10:12:06.072Z,988.30
2022-07-25T10:13:10.258Z,988.29
2022-07-25T10:14:07.375Z,988.33
2022-07-25T10:15:06.053Z,988.26
2022-07-25T10:16:06.043Z,988.24
2022-07-25T10:17:06.178Z,988.29
2022-07-25T10:18:06.059Z,988.17
2022-07-25T10:19:06.044Z,988.29
2022-07-25T10:20:06.017Z,988.18
2022-07-25T10:21:22.862Z,988.17
2022-07-25T10:22:08.008Z,988.26
2022-07-25T10:23:06.018Z,988.25
2022-07-25T10:24:06.409Z,988.38
2022-07-25T10:25:06.012Z,988.25
2022-07-25T10:26:05.977Z,988.28
2022-07-25T10:27:05.969Z,988.28
2022-07-25T10:28:05.985Z,988.21
2022-07-25T10:29:05.958Z,988.23
2022-07-25T10:30:05.971Z,988.12
2022-07-25T10:31:06.007Z,988.23
2022-07-25T10:32:05.936Z,988.18
2022-07-25T10:33:05.950Z,988.25
2022-07-25T10:34:06.283Z,988.17
2022-07-25T10:35:05.916Z,988.17
2022-07-25T10:36:05.934Z,988.17
2022-07-25T10:37:05.902Z,988.15
2022-07-25T10:38:05.914Z,988.12
2022-07-25T10:39:05.881Z,988.12
2022-07-25T10:40:05.881Z,988.06
2022-07-25T10:41:05.863Z,988.06
2022-07-25T10:42:05.858Z,988.03
2022-07-25T10:43:05.879Z,988.02
2022-07-25T10:44:06.159Z,988.02
2022-07-25T10:45:05.839Z,988.03
2022-07-25T10:46:05.898Z,987.99
2022-07-25T10:47:05.833Z,988.04
2022-07-25T10:48:05.858Z,988.07
2022-07-25T10:49:06.274Z,987.96
2022-07-25T10:50:19.051Z,987.99
2022-07-25T10:51:07.799Z,987.97
2022-07-25T10:52:05.794Z,987.93
2022-07-25T10:53:05.820Z,987.90
2022-07-25T10:54:05.778Z,987.94
2022-07-25T10:55:05.772Z,987.88
2022-07-25T10:56:06.639Z,987.90
2022-07-25T10:57:06.766Z,987.91
2022-07-25T10:58:17.556Z,987.82
2022-07-25T10:59:08.140Z,987.86
2022-07-25T11:00:05.736Z,987.90
2022-07-25T11:01:05.855Z,987.85
2022-07-25T11:02:05.810Z,987.86
2022-07-25T11:03:05.806Z,987.78
2022-07-25T11:04:05.735Z,987.84
2022-07-25T11:05:05.704Z,987.90
2022-07-25T11:06:05.694Z,987.87
2022-07-25T11:07:05.692Z,987.82
2022-07-25T11:08:21.062Z,987.92
2022-07-25T11:09:08.055Z,987.83
2022-07-25T11:10:05.672Z,987.82
2022-07-25T11:11:05.682Z,987.78
2022-07-25T11:12:05.657Z,987.86
2022-07-25T11:13:05.660Z,987.81
2022-07-25T11:14:05.667Z,987.74
2022-07-25T11:15:05.644Z,987.97
2022-07-25T11:16:05.633Z,987.91
2022-07-25T11:17:05.656Z,987.89
2022-07-25T11:18:05.611Z,987.84
2022-07-25T11:19:05.892Z,987.75
2022-07-25T11:20:05.607Z,987.77
2022-07-25T11:21:06.710Z,987.83
2022-07-25T11:22:06.598Z,987.75
2022-07-25T11:23:05.593Z,987.77
2022-07-25T11:24:05.605Z,987.63
2022-07-25T11:25:05.574Z,987.74
2022-07-25T11:26:05.570Z,987.76
2022-07-25T11:27:11.277Z,987.75
2022-07-25T11:28:07.551Z,987.77
2022-07-25T11:29:05.836Z,987.78
2022-07-25T11:30:05.545Z,987.90
2022-07-25T11:31:05.531Z,987.80
2022-07-25T11:32:05.614Z,987.78
2022-07-25T11:33:05.527Z,987.83
2022-07-25T11:34:05.544Z,987.70
2022-07-25T11:35:05.500Z,987.74
2022-07-25T11:36:06.496Z,987.73
2022-07-25T11:37:05.490Z,987.74
2022-07-25T11:38:06.463Z,987.78
2022-07-25T11:39:05.751Z,987.72
2022-07-25T11:40:05.474Z,987.73
2022-07-25T11:41:05.469Z,987.77
2022-07-25T11:42:05.459Z,987.79
2022-07-25T11:43:05.463Z,987.69
2022-07-25T11:44:05.484Z,987.64
2022-07-25T11:45:05.436Z,987.64
2022-07-25T11:46:05.489Z,987.68
2022-07-25T11:47:05.433Z,987.58
2022-07-25T11:48:05.421Z,987.64
2022-07-25T11:49:06.097Z,987.50
2022-07-25T11:50:05.420Z,987.55
2022-07-25T11:51:05.386Z,987.58
2022-07-25T11:52:05.388Z,987.53
2022-07-25T11:53:05.379Z,987.62
2022-07-25T11:54:05.374Z,987.65
2022-07-25T11:55:05.389Z,987.58
2022-07-25T11:56:25.418Z,987.64
2022-07-25T11:57:07.384Z,987.58
2022-07-25T11:58:05.338Z,987.49
2022-07-25T11:59:05.726Z,987.58
2022-07-25T12:00:05.419Z,987.67
2022-07-25T12:01:05.319Z,987.47
2022-07-25T12:02:05.426Z,987.61
2022-07-25T12:03:05.470Z,987.53
2022-07-25T12:04:05.297Z,987.52
2022-07-25T12:05:05.316Z,987.55
2022-07-25T12:06:05.287Z,987.51
2022-07-25T12:07:05.271Z,987.48
2022-07-25T12:08:05.264Z,987.46
2022-07-25T12:09:05.504Z,987.51
2022-07-25T12:10:05.309Z,987.49
2022-07-25T12:11:05.247Z,987.55
2022-07-25T12:12:05.264Z,987.49
2022-07-25T12:13:05.228Z,987.52
2022-07-25T12:14:05.225Z,987.51
2022-07-25T12:15:05.243Z,987.53
2022-07-25T12:16:05.213Z,987.52
2022-07-25T12:17:05.285Z,987.47
2022-07-25T12:18:05.191Z,987.41
2022-07-25T12:19:05.421Z,987.46
2022-07-25T12:20:10.638Z,987.46
2022-07-25T12:21:07.172Z,987.56
2022-07-25T12:22:05.163Z,987.51
2022-07-25T12:23:05.166Z,987.64
2022-07-25T12:24:05.156Z,987.49
2022-07-25T12:25:05.173Z,987.48
2022-07-25T12:26:05.134Z,987.49
2022-07-25T12:27:05.132Z,987.51
2022-07-25T12:28:05.128Z,987.48